createdAt,value
2022-07-30T00:01:29.403Z,16.76
2022-07-30T00:04:32.873Z,16.74
2022-07-30T00:07:36.960Z,16.75
2022-07-30T00:10:40.636Z,16.79
2022-07-30T00:13:43.617Z,16.83
2022-07-30T00:16:46.353Z,16.87
2022-07-30T00:19:50.045Z,16.87
2022-07-30T00:22:55.122Z,16.93
2022-07-30T00:25:57.816Z,16.99
2022-07-30T00:29:00.564Z,17.03
2022-07-30T00:32:03.274Z,16.98
2022-07-30T00:35:07.255Z,16.99
2022-07-30T00:38:11.315Z,17.01
2022-07-30T00:41:15.455Z,17.02
2022-07-30T00:44:18.489Z,17.01
2022-07-30T00:47:22.546Z,17.03
2022-07-30T00:50:25.286Z,17.02
2022-07-30T00:53:29.318Z,17.00
2022-07-30T00:56:32.712Z,17.01
2022-07-30T00:59:36.052Z,16.93
2022-07-30T01:02:38.854Z,16.95
2022-07-30T01:05:42.702Z,16.99
2022-07-30T01:08:47.348Z,17.05
2022-07-30T01:11:50.228Z,17.11
2022-07-30T01:14:55.179Z,17.10
2022-07-30T01:18:01.038Z,17.13
2022-07-30T01:21:10.651Z,17.11
2022-07-30T01:24:24.199Z,17.12
2022-07-30T01:27:31.087Z,17.11
2022-07-30T01:30:36.759Z,17.11
2022-07-30T01:33:44.721Z,17.09
2022-07-30T01:36:48.425Z,17.04
2022-07-30T01:39:53.141Z,17.01
2022-07-30T01:42:59.959Z,17.00
2022-07-30T01:46:04.625Z,17.00
2022-07-30T01:49:09.371Z,17.04
2022-07-30T01:52:13.210Z,17.06
2022-07-30T01:55:19.559Z,17.01
2022-07-30T01:58:27.527Z,16.96
2022-07-30T02:01:30.337Z,16.98
2022-07-30T02:04:33.301Z,17.00
2022-07-30T02:07:42.323Z,16.97
2022-07-30T02:10:50.718Z,16.93
2022-07-30T02:13:58.136Z,16.79
2022-07-30T02:17:04.116Z,16.75
2022-07-30T02:20:10.578Z,16.70
2022-07-30T02:23:17.207Z,16.65
2022-07-30T02:26:23.901Z,16.71
2022-07-30T02:29:34.071Z,16.78
2022-07-30T02:32:40.423Z,16.88
2022-07-30T02:35:50.716Z,16.97
2022-07-30T02:38:54.348Z,17.01
2022-07-30T02:41:57.975Z,16.98
2022-07-30T02:45:03.228Z,17.04
2022-07-30T02:48:08.739Z,17.06
2022-07-30T02:51:13.425Z,17.11
2022-07-30T02:54:18.885Z,17.13
2022-07-30T02:57:22.436Z,17.11
2022-07-30T03:00:28.155Z,17.12
2022-07-30T03:03:32.166Z,17.09
2022-07-30T03:06:37.121Z,17.07
2022-07-30T03:09:52.346Z,16.95
2022-07-30T03:12:57.444Z,16.89
2022-07-30T03:16:04.630Z,16.84
2022-07-30T03:19:10.580Z,16.77
2022-07-30T03:22:15.678Z,16.75
2022-07-30T03:25:23.537Z,16.67
2022-07-30T03:28:27.814Z,16.62
2022-07-30T03:31:36.524Z,16.58
2022-07-30T03:34:42.508Z,16.60
2022-07-30T03:37:47.559Z,16.62
2022-07-30T03:40:51.249Z,16.65
2022-07-30T03:43:54.876Z,16.61
2022-07-30T03:47:01.189Z,16.59
2022-07-30T03:50:04.493Z,16.59
2022-07-30T03:53:09.270Z,16.57
2022-07-30T03:56:13.659Z,16.59
2022-07-30T03:59:17.115Z,16.66
2022-07-30T04:02:21.527Z,16.71
2022-07-30T04:05:24.606Z,16.78
2022-07-30T04:08:28.811Z,16.86
2022-07-30T04:11:40.628Z,16.93
2022-07-30T04:14:46.891Z,16.99
2022-07-30T04:17:56.061Z,17.02
2022-07-30T04:21:01.540Z,17.07
2022-07-30T04:24:05.904Z,17.09
2022-07-30T04:27:08.869Z,17.12
2022-07-30T04:30:12.737Z,17.12
2022-07-30T04:33:18.243Z,17.14
2022-07-30T04:36:20.981Z,17.17
2022-07-30T04:39:23.695Z,17.17
2022-07-30T04:42:27.281Z,17.21
2022-07-30T04:45:29.987Z,17.21
2022-07-30T04:48:34.191Z,17.22
2022-07-30T04:51:39.343Z,17.24
2022-07-30T04:54:45.703Z,17.27
2022-07-30T04:57:50.835Z,17.30
2022-07-30T05:00:56.711Z,17.30
2022-07-30T05:04:02.870Z,17.32
2022-07-30T05:07:07.876Z,17.30
2022-07-30T05:10:12.153Z,17.30
2022-07-30T05:13:16.679Z,17.33
2022-07-30T05:16:19.630Z,17.35
2022-07-30T05:19:25.584Z,17.31
2022-07-30T05:22:30.670Z,17.35
2022-07-30T05:25:33.403Z,17.41
2022-07-30T05:28:36.317Z,17.46
2022-07-30T05:31:40.390Z,17.53
2022-07-30T05:34:44.663Z,17.67
2022-07-30T05:37:53.343Z,17.82
2022-07-30T05:40:56.143Z,17.90
2022-07-30T05:43:58.871Z,18.00
2022-07-30T05:47:02.205Z,18.18
2022-07-30T05:50:07.668Z,18.33
2022-07-30T05:53:10.481Z,18.43
2022-07-30T05:56:13.295Z,18.50
2022-07-30T05:59:16.011Z,18.53
2022-07-30T06:02:18.712Z,18.60
2022-07-30T06:05:23.392Z,18.58
2022-07-30T06:08:26.050Z,18.55
2022-07-30T06:11:28.772Z,18.53
2022-07-30T06:14:32.101Z,18.46
2022-07-30T06:17:41.236Z,18.40
2022-07-30T06:20:46.418Z,18.43
2022-07-30T06:23:49.529Z,18.50
2022-07-30T06:26:52.265Z,18.56
2022-07-30T06:29:55.719Z,18.64
2022-07-30T06:32:58.392Z,18.74
2022-07-30T06:36:02.632Z,18.85
2022-07-30T06:39:05.550Z,18.96
2022-07-30T06:42:08.436Z,19.05
2022-07-30T06:45:12.169Z,19.16
2022-07-30T06:48:14.843Z,19.27
2022-07-30T06:51:19.120Z,19.38
2022-07-30T06:54:22.142Z,19.45
2022-07-30T06:57:24.784Z,19.58
2022-07-30T07:00:27.702Z,19.79
2022-07-30T07:03:39.749Z,20.00
2022-07-30T07:06:44.739Z,20.28
2022-07-30T07:09:47.395Z,20.47
2022-07-30T07:12:50.072Z,20.51
2022-07-30T07:15:52.751Z,20.62
2022-07-30T07:18:57.053Z,20.80
2022-07-30T07:22:01.046Z,20.98
2022-07-30T07:25:04.133Z,21.16
2022-07-30T07:28:11.130Z,21.50
2022-07-30T07:32:06.327Z,21.60
2022-07-30T07:34:38.714Z,22.28
2022-07-30T07:37:42.735Z,22.75
2022-07-30T07:40:45.815Z,23.12
2022-07-30T07:43:48.576Z,23.64
2022-07-30T07:46:51.418Z,23.87
2022-07-30T07:49:56.473Z,23.95
2022-07-30T07:53:00.707Z,24.25
2022-07-30T07:56:03.641Z,24.45
2022-07-30T07:59:06.940Z,24.55
2022-07-30T08:02:11.060Z,24.60
2022-07-30T08:05:14.006Z,24.47
2022-07-30T08:08:18.074Z,24.47
2022-07-30T08:11:20.856Z,24.11
2022-07-30T08:14:23.527Z,23.45
2022-07-30T08:17:26.616Z,22.94
2022-07-30T08:20:33.295Z,22.61
2022-07-30T08:23:42.153Z,22.33
2022-07-30T08:26:45.383Z,22.15
2022-07-30T08:29:48.125Z,22.02
2022-07-30T08:32:50.946Z,21.97
2022-07-30T08:35:57.235Z,21.96
2022-07-30T08:39:06.998Z,21.98
2022-07-30T08:42:10.011Z,22.00
2022-07-30T08:45:13.945Z,22.03
2022-07-30T08:48:19.714Z,22.11
2022-07-30T08:51:24.068Z,22.18
2022-07-30T08:54:28.259Z,22.30
2022-07-30T08:57:31.585Z,22.48
2022-07-30T09:00:34.518Z,22.76
2022-07-30T09:03:44.168Z,22.99
2022-07-30T09:06:47.283Z,23.26
2022-07-30T09:09:52.390Z,23.49
2022-07-30T09:12:55.018Z,23.65
2022-07-30T09:15:58.603Z,23.46
2022-07-30T09:19:13.104Z,23.57
2022-07-30T09:22:17.257Z,23.67
2022-07-30T09:25:41.260Z,23.68
2022-07-30T09:28:44.081Z,23.81
2022-07-30T09:31:57.940Z,24.04
2022-07-30T09:35:13.172Z,24.14
2022-07-30T09:38:15.835Z,23.94
2022-07-30T09:41:38.301Z,23.94
2022-07-30T09:44:41.934Z,24.12
2022-07-30T09:47:48.324Z,24.03
2022-07-30T09:50:52.341Z,24.06
2022-07-30T09:53:57.049Z,24.11
2022-07-30T09:57:22.709Z,24.03
2022-07-30T10:00:31.673Z,23.68
2022-07-30T10:03:42.024Z,23.52
2022-07-30T10:06:45.619Z,23.41
2022-07-30T10:09:50.084Z,23.44
2022-07-30T10:13:00.917Z,23.53
2022-07-30T10:16:04.328Z,23.68
2022-07-30T10:19:13.808Z,23.78
2022-07-30T10:22:21.592Z,23.90
2022-07-30T10:25:28.084Z,24.06
2022-07-30T10:28:37.024Z,24.20
2022-07-30T10:31:47.336Z,24.37
2022-07-30T10:34:52.655Z,24.23
2022-07-30T10:37:58.812Z,24.37
2022-07-30T10:41:08.693Z,24.61
2022-07-30T10:44:42.245Z,24.85
2022-07-30T10:47:48.820Z,25.09
2022-07-30T10:50:54.950Z,25.27
2022-07-30T10:53:59.409Z,25.43
2022-07-30T10:57:07.586Z,25.56
2022-07-30T11:00:17.752Z,25.75
2022-07-30T11:03:23.609Z,25.81
2022-07-30T11:06:44.017Z,26.07
2022-07-30T11:09:57.974Z,26.14
2022-07-30T11:13:09.805Z,26.35
2022-07-30T11:16:13.985Z,26.76
2022-07-30T11:19:54.975Z,26.81
2022-07-30T11:22:44.704Z,26.68
2022-07-30T11:25:50.317Z,26.59
2022-07-30T11:28:55.016Z,26.57
2022-07-30T11:32:00.944Z,26.60
2022-07-30T11:35:18.876Z,26.60
2022-07-30T11:38:22.255Z,26.68
2022-07-30T11:41:25.925Z,26.41
2022-07-30T11:44:30.568Z,26.39
2022-07-30T11:47:35.597Z,26.40
2022-07-30T11:50:39.103Z,26.60
2022-07-30T11:53:42.441Z,26.84
2022-07-30T11:56:52.853Z,26.46
2022-07-30T11:59:56.974Z,26.18
2022-07-30T12:03:03.984Z,26.08
2022-07-30T12:06:09.357Z,26.17
2022-07-30T12:09:13.001Z,26.16
2022-07-30T12:12:23.721Z,26.38
2022-07-30T12:15:31.686Z,26.47
2022-07-30T12:18:36.224Z,26.31
2022-07-30T12:21:39.190Z,26.23
2022-07-30T12:24:42.923Z,25.99
2022-07-30T12:27:51.820Z,25.88
2022-07-30T12:30:56.881Z,26.09
2022-07-30T12:34:01.432Z,26.10
2022-07-30T12:37:11.114Z,26.19
2022-07-30T12:40:16.647Z,26.29
2022-07-30T12:43:20.100Z,26.40
2022-07-30T12:46:24.313Z,26.53
2022-07-30T12:49:36.542Z,26.77
2022-07-30T12:52:49.086Z,26.87
2022-07-30T12:55:51.998Z,27.03
2022-07-30T12:58:56.927Z,26.97
2022-07-30T13:02:00.529Z,26.95
2022-07-30T13:05:11.702Z,27.03
2022-07-30T13:08:14.922Z,27.15
2022-07-30T13:11:19.136Z,27.26
2022-07-30T13:14:24.669Z,27.23
2022-07-30T13:17:29.921Z,27.14
2022-07-30T13:20:34.637Z,27.22
2022-07-30T13:23:38.814Z,27.39
2022-07-30T13:26:41.569Z,27.35
2022-07-30T13:29:44.227Z,27.42
2022-07-30T13:32:47.095Z,27.53
2022-07-30T13:35:51.502Z,27.50
2022-07-30T13:38:54.115Z,27.35
2022-07-30T13:41:56.800Z,27.13
2022-07-30T13:44:59.460Z,26.82
2022-07-30T13:48:02.465Z,26.90
2022-07-30T13:51:08.075Z,27.14
2022-07-30T13:54:10.771Z,27.18
2022-07-30T13:57:16.933Z,27.28
2022-07-30T14:00:19.929Z,27.38
2022-07-30T14:03:22.972Z,27.20
2022-07-30T14:06:27.168Z,27.30
2022-07-30T14:09:30.040Z,27.56
2022-07-30T14:12:33.049Z,27.42
2022-07-30T14:15:35.969Z,27.48
2022-07-30T14:18:38.850Z,27.58
2022-07-30T14:21:42.930Z,27.67
2022-07-30T14:24:48.762Z,27.73
2022-07-30T14:27:51.437Z,27.80
2022-07-30T14:30:54.930Z,27.85
2022-07-30T14:33:57.695Z,27.94
2022-07-30T14:37:02.004Z,28.03
2022-07-30T14:40:08.343Z,28.14
2022-07-30T14:43:11.127Z,28.17
2022-07-30T14:46:14.159Z,28.11
2022-07-30T14:49:17.240Z,28.01
2022-07-30T14:52:21.525Z,27.97
2022-07-30T14:55:24.497Z,27.73
2022-07-30T14:58:27.427Z,27.64
2022-07-30T15:01:30.715Z,27.57
2022-07-30T15:04:33.650Z,27.62
2022-07-30T15:07:40.300Z,27.64
2022-07-30T15:10:43.366Z,27.63
2022-07-30T15:13:50.051Z,27.51
2022-07-30T15:16:53.410Z,27.56
2022-07-30T15:19:56.111Z,27.66
2022-07-30T15:23:00.193Z,27.58
2022-07-30T15:26:03.397Z,27.56
2022-07-30T15:29:11.654Z,27.62
2022-07-30T15:32:17.329Z,27.81
2022-07-30T15:35:20.201Z,28.07
2022-07-30T15:38:24.577Z,28.04
2022-07-30T15:41:27.358Z,27.99
2022-07-30T15:44:30.369Z,27.98
2022-07-30T15:47:33.300Z,28.28
2022-07-30T15:50:36.129Z,28.42
2022-07-30T15:53:40.281Z,28.40
2022-07-30T15:56:44.037Z,28.38
2022-07-30T15:59:46.950Z,28.33
2022-07-30T16:02:50.953Z,28.25
2022-07-30T16:05:53.608Z,28.23
2022-07-30T16:08:58.124Z,28.18
2022-07-30T16:12:02.072Z,28.10
2022-07-30T16:15:08.417Z,27.97
2022-07-30T16:18:11.502Z,27.85
2022-07-30T16:21:14.305Z,27.70
2022-07-30T16:24:19.022Z,27.51
2022-07-30T16:27:22.193Z,27.47
2022-07-30T16:30:27.315Z,27.39
2022-07-30T16:33:30.648Z,27.27
2022-07-30T16:36:33.920Z,27.10
2022-07-30T16:39:38.169Z,26.99
2022-07-30T16:42:41.289Z,27.01
2022-07-30T16:45:44.710Z,27.05
2022-07-30T16:48:47.722Z,27.14
2022-07-30T16:51:54.220Z,27.18
2022-07-30T16:54:58.429Z,27.10
2022-07-30T16:58:01.615Z,27.07
2022-07-30T17:01:04.963Z,27.04
2022-07-30T17:04:07.869Z,26.99
2022-07-30T17:07:10.678Z,26.91
2022-07-30T17:10:14.937Z,26.81
2022-07-30T17:13:28.785Z,26.70
2022-07-30T17:16:32.628Z,26.64
2022-07-30T17:19:35.557Z,26.57
2022-07-30T17:22:42.853Z,26.54
2022-07-30T17:25:47.161Z,26.51
2022-07-30T17:28:49.979Z,26.47
2022-07-30T17:31:52.698Z,26.39
2022-07-30T17:34:58.452Z,26.30
2022-07-30T17:38:01.084Z,26.22
2022-07-30T17:41:05.428Z,25.76
2022-07-30T17:44:08.722Z,25.67
2022-07-30T17:47:14.696Z,25.55
2022-07-30T17:50:18.911Z,25.44
2022-07-30T17:53:21.653Z,25.27
2022-07-30T17:56:26.944Z,25.15
2022-07-30T17:59:30.090Z,24.95
2022-07-30T18:02:33.199Z,24.75
2022-07-30T18:05:35.964Z,24.56
2022-07-30T18:08:38.684Z,24.39
2022-07-30T18:11:42.965Z,24.26
2022-07-30T18:14:45.674Z,24.10
2022-07-30T18:17:48.515Z,23.92
2022-07-30T18:20:51.435Z,23.83
2022-07-30T18:23:54.086Z,23.73
2022-07-30T18:26:59.608Z,23.58
2022-07-30T18:30:03.076Z,23.52
2022-07-30T18:33:09.161Z,23.43
2022-07-30T18:36:12.041Z,23.29
2022-07-30T18:39:14.680Z,23.25
2022-07-30T18:42:18.725Z,23.13
2022-07-30T18:45:22.720Z,23.02
2022-07-30T18:48:26.255Z,22.93
2022-07-30T18:51:28.919Z,22.81
2022-07-30T18:54:32.075Z,22.69
2022-07-30T18:57:36.298Z,22.66
2022-07-30T19:00:42.790Z,22.50
2022-07-30T19:03:45.617Z,22.44
2022-07-30T19:06:48.364Z,22.31
2022-07-30T19:09:55.286Z,22.25
2022-07-30T19:12:59.771Z,22.14
2022-07-30T19:16:02.476Z,22.07
2022-07-30T19:19:05.350Z,21.97
2022-07-30T19:22:08.313Z,21.94
2022-07-30T19:25:11.810Z,21.81
2022-07-30T19:28:17.765Z,21.68
2022-07-30T19:31:20.959Z,21.59
2022-07-30T19:34:23.736Z,21.48
2022-07-30T19:37:26.487Z,21.42
2022-07-30T19:40:29.277Z,21.36
2022-07-30T19:43:35.212Z,21.30
2022-07-30T19:46:41.342Z,21.24
2022-07-30T19:49:44.286Z,21.19
2022-07-30T19:52:50.942Z,21.12
2022-07-30T19:55:54.572Z,21.05
2022-07-30T19:59:00.239Z,20.97
2022-07-30T20:02:03.641Z,20.89
2022-07-30T20:05:11.073Z,20.87
2022-07-30T20:08:15.307Z,20.80
2022-07-30T20:11:21.364Z,20.73
2022-07-30T20:14:43.243Z,20.66
2022-07-30T20:17:47.053Z,20.60
2022-07-30T20:20:49.818Z,20.53
2022-07-30T20:23:54.529Z,20.47
2022-07-30T20:26:57.623Z,20.44
2022-07-30T20:30:01.716Z,20.37
2022-07-30T20:33:04.614Z,20.22
2022-07-30T20:36:09.756Z,19.98
2022-07-30T20:39:13.541Z,19.85
2022-07-30T20:42:21.920Z,19.83
2022-07-30T20:45:38.038Z,19.85
2022-07-30T20:48:43.262Z,19.86
2022-07-30T20:51:50.443Z,19.88
2022-07-30T20:54:53.186Z,19.87
2022-07-30T20:58:07.946Z,19.83
2022-07-30T21:01:18.860Z,19.82
2022-07-30T21:04:23.891Z,19.76
2022-07-30T21:07:36.516Z,19.78
2022-07-30T21:10:40.977Z,19.77
2022-07-30T21:13:48.049Z,19.75
2022-07-30T21:16:55.988Z,19.71
2022-07-30T21:19:59.676Z,19.69
2022-07-30T21:23:05.435Z,19.66
2022-07-30T21:26:13.453Z,19.64
2022-07-30T21:29:17.719Z,19.54
2022-07-30T21:32:22.295Z,19.55
2022-07-30T21:35:31.755Z,19.48
2022-07-30T21:38:35.414Z,19.44
2022-07-30T21:41:40.925Z,19.43
2022-07-30T21:44:43.741Z,19.39
2022-07-30T21:47:50.880Z,19.41
2022-07-30T21:50:55.503Z,19.47
2022-07-30T21:53:58.268Z,19.50
2022-07-30T21:57:01.662Z,19.54
2022-07-30T22:00:10.022Z,19.55
2022-07-30T22:04:02.885Z,19.56
2022-07-30T22:06:39.834Z,19.59
2022-07-30T22:09:42.635Z,19.61
2022-07-30T22:12:45.333Z,19.60
2022-07-30T22:15:48.193Z,19.63
2022-07-30T22:18:53.182Z,19.61
2022-07-30T22:21:55.948Z,19.60
2022-07-30T22:25:00.076Z,19.60
2022-07-30T22:28:03.501Z,19.61
2022-07-30T22:31:10.016Z,19.60
2022-07-30T22:34:18.329Z,19.57
2022-07-30T22:37:22.339Z,19.54
2022-07-30T22:40:25.237Z,19.54
2022-07-30T22:46:56.140Z,19.47
2022-07-30T22:50:01.547Z,19.45
2022-07-30T22:53:23.711Z,19.37
2022-07-30T22:56:27.678Z,19.37
2022-07-30T22:59:59.835Z,19.36
2022-07-30T23:02:53.492Z,19.35
2022-07-30T23:06:00.455Z,19.34
2022-07-30T23:09:03.992Z,19.33
2022-07-30T23:12:07.600Z,19.33
2022-07-30T23:12:32.684Z,19.51
2022-07-30T23:15:11.534Z,19.29
2022-07-30T23:18:15.855Z,19.29
2022-07-30T23:21:20.904Z,19.30
2022-07-30T23:24:23.592Z,19.29
2022-07-30T23:27:26.720Z,19.29
2022-07-30T23:30:30.010Z,19.28
2022-07-30T23:33:36.735Z,19.27
2022-07-30T23:36:40.740Z,19.25
2022-07-30T23:39:43.869Z,19.23
2022-07-30T23:42:47.269Z,19.18
2022-07-30T23:45:50.214Z,19.15
2022-07-30T23:48:53.406Z,19.10
2022-07-30T23:51:57.568Z,19.03
2022-07-30T23:55:01.388Z,18.89
2022-07-30T23:58:06.015Z,18.85
